Time;durP1;ratioP1;P1;durP2;ratioP2;P2;SDS_P1;SDS_P2;PMS_P1;PMS_P2;Temp;Humidity;BMP_temperature;BMP_pressure;BME280_temperature;BME280_humidity;BME280_pressure;Samples;Min_cycle;Max_cycle;Signal;HPM_P1;HPM_P2
2023/04/23 00:01:58;;;;;;;42.10;22.70;;;;;;;6.90;53.51;98894.40;105231;1258;96939;-74
2023/04/23 00:04:27;;;;;;;42.30;25.00;;;;;;;6.91;53.39;98893.45;104912;1261;109817;-76
2023/04/23 00:06:56;;;;;;;44.10;22.50;;;;;;;6.92;53.75;98893.20;105215;1275;101450;-74
2023/04/23 00:09:29;;;;;;;38.10;21.90;;;;;;;6.84;53.76;98891.02;105188;1259;107610;-79
2023/04/23 00:11:57;;;;;;;39.50;22.10;;;;;;;6.77;53.97;98889.83;105212;1254;97883;-75
2023/04/23 00:14:25;;;;;;;38.10;22.50;;;;;;;6.71;53.85;98887.93;104898;1259;98051;-76
2023/04/23 00:16:53;;;;;;;40.40;20.20;;;;;;;6.65;53.84;98886.15;105241;1256;108771;-75
2023/04/23 00:19:22;;;;;;;37.90;20.50;;;;;;;6.64;54.12;98882.52;105332;1252;102010;-75
2023/04/23 00:21:50;;;;;;;38.20;18.70;;;;;;;6.62;53.93;98883.70;105321;1266;105598;-75
2023/04/23 00:24:19;;;;;;;33.10;17.20;;;;;;;6.61;53.96;98883.05;105290;1253;96587;-75
2023/04/23 00:26:47;;;;;;;32.50;15.90;;;;;;;6.61;54.31;98882.52;105325;1260;97056;-75
2023/04/23 00:29:14;;;;;;;32.50;17.20;;;;;;;6.59;54.20;98878.06;105158;1255;110391;-81
2023/04/23 00:31:42;;;;;;;30.80;16.20;;;;;;;6.55;54.11;98879.13;104924;1260;101850;-74
2023/04/23 00:34:11;;;;;;;33.10;17.70;;;;;;;6.54;54.40;98878.71;104979;1267;106762;-75
2023/04/23 00:36:39;;;;;;;30.90;16.50;;;;;;;6.51;54.15;98875.16;105149;1266;97940;-75
2023/04/23 00:39:07;;;;;;;33.60;17.30;;;;;;;6.48;54.37;98874.34;105251;1260;97962;-73
2023/04/23 00:41:35;;;;;;;34.30;17.10;;;;;;;6.48;54.31;98873.05;105143;1260;110496;-74
2023/04/23 00:44:03;;;;;;;33.10;17.10;;;;;;;6.52;54.55;98871.08;105306;1257;102206;-75
2023/04/23 00:46:31;;;;;;;31.70;16.80;;;;;;;6.48;54.42;98866.52;105309;1266;107581;-75
2023/04/23 00:49:00;;;;;;;32.40;17.50;;;;;;;6.47;54.39;98867.48;105310;1260;96695;-74
2023/04/23 00:51:29;;;;;;;32.00;16.90;;;;;;;6.46;54.49;98869.48;105216;1257;97186;-75
2023/04/23 00:53:57;;;;;;;32.10;16.80;;;;;;;6.42;54.47;98867.77;104917;1260;108922;-74
2023/04/23 00:56:26;;;;;;;33.40;16.20;;;;;;;6.37;54.46;98866.27;105029;1258;103158;-76
2023/04/23 00:58:54;;;;;;;32.70;16.10;;;;;;;6.31;54.72;98868.41;105339;1259;107555;-75
2023/04/23 01:01:22;;;;;;;32.10;15.90;;;;;;;6.25;54.82;98870.17;104824;1265;97206;-75
2023/04/23 01:03:52;;;;;;;30.50;16.70;;;;;;;6.21;54.86;98868.45;105308;1266;98090;-75
2023/04/23 01:06:23;;;;;;;31.80;15.90;;;;;;;6.16;54.97;98869.63;105151;1256;109433;-76
2023/04/23 01:08:51;;;;;;;29.20;15.70;;;;;;;6.09;55.00;98867.02;105161;1258;102309;-76
2023/04/23 01:11:19;;;;;;;33.90;17.40;;;;;;;6.05;54.96;98868.33;104983;1259;107647;-74
2023/04/23 01:13:47;;;;;;;36.90;18.00;;;;;;;6.03;55.09;98868.92;105087;1267;96653;-74
2023/04/23 01:16:16;;;;;;;32.40;16.00;;;;;;;6.01;55.28;98864.30;105079;1260;97094;-81
2023/04/23 01:18:44;;;;;;;31.70;17.40;;;;;;;6.00;55.35;98867.52;105302;1256;110011;-73
2023/04/23 01:21:14;;;;;;;32.60;16.50;;;;;;;5.99;55.40;98868.08;105212;1267;103151;-74
2023/04/23 01:23:41;;;;;;;30.90;15.10;;;;;;;5.97;55.34;98866.98;105275;1260;107094;-74
2023/04/23 01:26:10;;;;;;;32.70;18.10;;;;;;;5.95;54.98;98866.56;105044;1259;96658;-74
2023/04/23 01:28:38;;;;;;;34.80;18.40;;;;;;;5.99;55.29;98866.18;105275;1265;96643;-74
2023/04/23 01:31:12;;;;;;;30.40;17.00;;;;;;;5.98;55.37;98865.15;105310;1254;110185;-75
2023/04/23 01:33:42;;;;;;;32.80;16.90;;;;;;;5.96;55.48;98870.39;105362;1257;102207;-76
2023/04/23 01:36:11;;;;;;;32.20;18.10;;;;;;;5.91;55.59;98873.27;105016;1272;107646;-74
2023/04/23 01:38:39;;;;;;;35.30;17.10;;;;;;;5.88;55.56;98869.78;104878;1260;96628;-75
2023/04/23 01:41:08;;;;;;;32.20;17.50;;;;;;;5.84;55.49;98869.27;105205;1254;98212;-75
2023/04/23 01:43:37;;;;;;;33.30;16.40;;;;;;;5.87;55.36;98870.54;105058;1258;109359;-75
2023/04/23 01:46:05;;;;;;;30.30;16.50;;;;;;;5.91;55.50;98870.29;105086;1257;102179;-75
2023/04/23 01:48:34;;;;;;;30.90;16.50;;;;;;;5.91;55.69;98867.85;105178;1258;107337;-75
2023/04/23 01:51:04;;;;;;;31.40;16.60;;;;;;;5.86;55.67;98869.71;105164;1264;96592;-75
2023/04/23 01:53:32;;;;;;;30.10;16.10;;;;;;;5.84;55.83;98869.14;105147;1260;97022;-75
2023/04/23 01:56:01;;;;;;;31.90;16.40;;;;;;;5.79;55.75;98863.59;105391;1260;109924;-78
2023/04/23 01:58:29;;;;;;;31.30;16.40;;;;;;;5.77;55.85;98867.04;105177;1260;102208;-74
2023/04/23 02:00:57;;;;;;;32.50;16.70;;;;;;;5.72;55.79;98865.57;105231;1258;107437;-75
2023/04/23 02:03:30;;;;;;;34.20;18.20;;;;;;;5.70;55.95;98866.02;105287;1258;97931;-75
2023/04/23 02:05:59;;;;;;;40.10;19.60;;;;;;;5.72;56.07;98866.41;105226;1257;96636;-75
2023/04/23 02:08:27;;;;;;;38.20;19.20;;;;;;;5.76;55.77;98864.60;105244;1258;109374;-75
2023/04/23 02:10:56;;;;;;;35.00;18.90;;;;;;;5.80;55.97;98863.54;105169;1258;101869;-75
2023/04/23 02:13:24;;;;;;;35.60;17.30;;;;;;;5.80;56.10;98863.86;105301;1267;106591;-75
2023/04/23 02:15:52;;;;;;;32.50;16.70;;;;;;;5.79;56.23;98859.17;105258;1257;96600;-74
2023/04/23 02:18:20;;;;;;;32.70;17.00;;;;;;;5.76;56.24;98863.21;105342;1257;97100;-73
2023/04/23 02:20:48;;;;;;;32.80;16.70;;;;;;;5.73;56.22;98858.31;105335;1256;109479;-75
2023/04/23 02:23:16;;;;;;;34.80;17.00;;;;;;;5.70;56.43;98854.40;105324;1256;101920;-77
2023/04/23 02:25:44;;;;;;;34.90;17.90;;;;;;;5.68;56.15;98852.23;105248;1267;107546;-75
2023/04/23 02:28:13;;;;;;;37.00;18.70;;;;;;;5.69;56.07;98853.79;105094;1268;96700;-74
2023/04/23 02:30:46;;;;;;;34.10;18.60;;;;;;;5.66;56.51;98855.48;105112;1254;97266;-75
2023/04/23 02:33:14;;;;;;;34.90;19.60;;;;;;;5.63;56.40;98853.58;105158;1257;109490;-75
2023/04/23 02:35:42;;;;;;;45.30;23.60;;;;;;;5.60;56.26;98852.30;105259;1254;102258;-74
2023/04/23 02:38:10;;;;;;;42.90;24.20;;;;;;;5.59;56.11;98854.67;105106;1267;106604;-74
2023/04/23 02:40:39;;;;;;;46.50;25.40;;;;;;;5.56;56.21;98850.56;105124;1257;97401;-74
2023/04/23 02:43:07;;;;;;;47.20;26.90;;;;;;;5.54;56.43;98850.54;105199;1257;97103;-74
2023/04/23 02:45:35;;;;;;;53.60;30.40;;;;;;;5.53;56.21;98850.77;105083;1257;110015;-74
2023/04/23 02:48:03;;;;;;;47.20;26.80;;;;;;;5.49;56.44;98848.34;105273;1257;101976;-73
2023/04/23 02:50:31;;;;;;;46.20;27.80;;;;;;;5.44;56.71;98847.02;105184;1254;106160;-75
2023/04/23 02:52:59;;;;;;;46.80;27.20;;;;;;;5.38;56.67;98844.92;105238;1254;96620;-75
2023/04/23 02:55:30;;;;;;;51.50;30.30;;;;;;;5.34;56.81;98844.60;104915;1255;97119;-74
2023/04/23 02:57:59;;;;;;;50.00;28.70;;;;;;;5.35;56.84;98849.48;105327;1257;109916;-75
2023/04/23 03:00:27;;;;;;;51.90;30.70;;;;;;;5.34;56.84;98846.88;105044;1257;102226;-75
2023/04/23 03:02:55;;;;;;;54.80;31.60;;;;;;;5.34;56.74;98844.73;105260;1256;106943;-76
2023/04/23 03:05:24;;;;;;;50.90;30.20;;;;;;;5.33;57.20;98844.10;105200;1257;97574;-74
2023/04/23 03:07:52;;;;;;;56.20;33.70;;;;;;;5.31;57.22;98846.50;105231;1254;97005;-75
2023/04/23 03:10:20;;;;;;;56.10;33.80;;;;;;;5.30;56.83;98845.13;105307;1254;109421;-75
2023/04/23 03:12:48;;;;;;;53.50;30.10;;;;;;;5.31;57.15;98847.36;105264;1256;102188;-77
2023/04/23 03:15:16;;;;;;;47.80;28.00;;;;;;;5.27;57.33;98842.15;105287;1260;107124;-75
2023/04/23 03:17:44;;;;;;;50.60;28.80;;;;;;;5.25;57.42;98843.13;105508;1254;97934;-74
2023/04/23 03:20:13;;;;;;;45.30;27.20;;;;;;;5.21;57.37;98844.40;105392;1258;97627;-75
2023/04/23 03:22:41;;;;;;;48.80;27.90;;;;;;;5.15;57.45;98846.66;104909;1260;109852;-75
2023/04/23 03:25:09;;;;;;;46.40;27.90;;;;;;;5.11;57.37;98848.27;105214;1263;101944;-74
2023/04/23 03:27:39;;;;;;;45.10;26.30;;;;;;;5.11;57.49;98847.23;105363;1257;107647;-75
2023/04/23 03:30:08;;;;;;;45.70;25.50;;;;;;;5.09;57.65;98853.70;105057;1260;97898;-75
2023/04/23 03:32:36;;;;;;;47.60;26.80;;;;;;;5.07;57.79;98854.48;105085;1264;96594;-75
2023/04/23 03:35:04;;;;;;;46.00;26.30;;;;;;;5.05;57.68;98853.34;104922;1266;109945;-74
2023/04/23 03:37:32;;;;;;;46.50;26.00;;;;;;;5.05;57.70;98856.88;105069;1258;102300;-76
2023/04/23 03:40:05;;;;;;;49.10;27.70;;;;;;;5.05;57.83;98857.55;105316;1267;107419;-74
2023/04/23 03:42:34;;;;;;;48.10;25.20;;;;;;;5.09;57.82;98856.65;104972;1260;96592;-76
2023/04/23 03:45:03;;;;;;;46.90;27.30;;;;;;;5.11;58.06;98856.73;105198;1260;97119;-75
2023/04/23 03:47:31;;;;;;;47.90;27.50;;;;;;;5.11;58.08;98855.51;105077;1254;109910;-75
2023/04/23 03:49:59;;;;;;;48.00;28.00;;;;;;;5.13;57.99;98854.00;105247;1258;102036;-74
2023/04/23 03:52:35;;;;;;;51.20;28.90;;;;;;;5.14;58.15;98852.88;105033;1274;107673;-75
2023/04/23 03:55:04;;;;;;;49.30;27.50;;;;;;;5.17;58.09;98852.01;105133;1270;96732;-75
2023/04/23 03:57:32;;;;;;;51.70;29.90;;;;;;;5.19;58.23;98852.07;105193;1268;98413;-74
2023/04/23 04:00:01;;;;;;;50.30;30.00;;;;;;;5.25;57.87;98850.92;105101;1256;108502;-75
2023/04/23 04:02:29;;;;;;;51.50;29.70;;;;;;;5.30;58.10;98853.61;105145;1258;102476;-74
2023/04/23 04:04:58;;;;;;;47.70;28.00;;;;;;;5.35;58.20;98857.20;105069;1260;107704;-74
2023/04/23 04:07:27;;;;;;;47.60;27.30;;;;;;;5.35;58.33;98859.31;105118;1260;96707;-75
2023/04/23 04:09:55;;;;;;;48.70;27.10;;;;;;;5.34;58.44;98860.23;105303;1254;97112;-83
2023/04/23 04:12:23;;;;;;;44.60;27.50;;;;;;;5.36;58.39;98860.48;105375;1256;109416;-74
2023/04/23 04:14:51;;;;;;;46.70;26.90;;;;;;;5.44;58.40;98858.66;105297;1254;104151;-74
2023/04/23 04:17:19;;;;;;;47.00;28.10;;;;;;;5.53;58.49;98857.45;104955;1258;107740;-73
2023/04/23 04:19:47;;;;;;;48.70;26.80;;;;;;;5.60;58.64;98862.16;105233;1252;97872;-75
2023/04/23 04:22:15;;;;;;;46.20;25.90;;;;;;;5.64;58.64;98864.08;105300;1255;97007;-81
2023/04/23 04:24:46;;;;;;;44.80;26.10;;;;;;;5.67;58.71;98865.63;105206;1262;109375;-75
2023/04/23 04:27:14;;;;;;;44.80;26.40;;;;;;;5.70;58.66;98866.68;105288;1258;101795;-75
2023/04/23 04:29:43;;;;;;;52.30;30.50;;;;;;;5.77;58.66;98868.77;105198;1259;107238;-75
2023/04/23 04:32:12;;;;;;;49.60;28.70;;;;;;;5.84;58.63;98865.77;105249;1257;96683;-74
2023/04/23 04:34:40;;;;;;;45.80;27.90;;;;;;;5.89;58.79;98867.04;105127;1257;96994;-75
2023/04/23 04:37:10;;;;;;;46.90;27.60;;;;;;;5.94;58.98;98863.59;105309;1252;108510;-74
2023/04/23 04:39:38;;;;;;;47.80;28.60;;;;;;;5.99;59.01;98865.11;105038;1258;103201;-78
2023/04/23 04:42:06;;;;;;;40.30;23.40;;;;;;;6.05;58.96;98864.08;105403;1254;107686;-72
2023/04/23 04:44:36;;;;;;;38.50;20.70;;;;;;;6.13;59.02;98861.01;105125;1254;96663;-74
2023/04/23 04:47:06;;;;;;;33.80;18.10;;;;;;;6.22;58.85;98858.68;105422;1257;98202;-78
2023/04/23 04:49:35;;;;;;;28.30;12.00;;;;;;;6.34;59.28;98854.81;105180;1253;109697;-78
2023/04/23 04:52:02;;;;;;;26.90;10.70;;;;;;;6.47;59.18;98856.92;105162;1266;102244;-75
2023/04/23 04:54:31;;;;;;;19.40;8.90;;;;;;;6.59;59.14;98852.50;105120;1257;107678;-74
2023/04/23 04:57:01;;;;;;;19.00;8.40;;;;;;;6.71;59.25;98847.36;105271;1256;97533;-75
2023/04/23 04:59:29;;;;;;;20.20;8.70;;;;;;;6.85;59.17;98851.15;105165;1258;96994;-74
2023/04/23 05:01:57;;;;;;;18.30;8.40;;;;;;;6.96;59.34;98850.27;105307;1255;109461;-75
2023/04/23 05:04:25;;;;;;;19.70;8.40;;;;;;;7.07;59.51;98855.95;105178;1258;102349;-76
2023/04/23 05:06:53;;;;;;;20.00;8.50;;;;;;;7.19;59.62;98857.69;105281;1258;107496;-75
2023/04/23 05:09:22;;;;;;;19.90;8.60;;;;;;;7.30;59.40;98858.94;105343;1258;96735;-74
2023/04/23 05:11:50;;;;;;;22.90;11.10;;;;;;;7.41;59.63;98857.21;105263;1256;97090;-74
2023/04/23 05:14:18;;;;;;;20.10;8.20;;;;;;;7.50;59.52;98859.48;105229;1255;109861;-74
2023/04/23 05:16:46;;;;;;;23.30;8.80;;;;;;;7.61;59.48;98857.55;105138;1257;102193;-76
2023/04/23 05:19:14;;;;;;;19.30;7.70;;;;;;;7.71;59.31;98854.98;104895;1270;107326;-74
2023/04/23 05:21:42;;;;;;;21.10;8.90;;;;;;;7.82;59.66;98854.45;104949;1260;96691;-77
2023/04/23 05:24:11;;;;;;;19.50;8.90;;;;;;;7.94;59.61;98853.02;105186;1257;97537;-75
2023/04/23 05:26:39;;;;;;;20.40;8.70;;;;;;;8.03;59.58;98851.71;105124;1257;110375;-75
2023/04/23 05:29:07;;;;;;;18.40;8.10;;;;;;;8.13;59.71;98849.82;105152;1261;102203;-75
2023/04/23 05:31:35;;;;;;;20.50;8.90;;;;;;;8.23;59.68;98848.61;105114;1269;107754;-73
2023/04/23 05:34:03;;;;;;;19.00;8.20;;;;;;;8.32;59.64;98845.73;105129;1257;96689;-75
2023/04/23 05:36:31;;;;;;;19.00;7.80;;;;;;;8.41;59.44;98849.00;105216;1254;97056;-75
2023/04/23 05:38:59;;;;;;;19.50;8.30;;;;;;;8.49;59.60;98847.25;105197;1256;109377;-75
2023/04/23 05:41:27;;;;;;;20.40;8.10;;;;;;;8.57;59.73;98850.06;104998;1255;101804;-74
2023/04/23 05:43:55;;;;;;;17.40;7.20;;;;;;;8.67;59.74;98851.73;105115;1261;107105;-75
2023/04/23 05:46:23;;;;;;;15.70;7.10;;;;;;;8.76;59.79;98850.55;104904;1258;96555;-75
2023/04/23 05:48:52;;;;;;;19.20;7.50;;;;;;;8.86;59.72;98850.06;105173;1255;98064;-75
2023/04/23 05:51:20;;;;;;;19.00;7.70;;;;;;;8.98;59.78;98853.32;105114;1254;109995;-75
2023/04/23 05:53:49;;;;;;;20.40;7.70;;;;;;;9.07;59.63;98859.40;105223;1260;102213;-74
2023/04/23 05:56:17;;;;;;;16.40;6.90;;;;;;;9.17;59.72;98854.86;105223;1254;107191;-74
2023/04/23 05:58:45;;;;;;;17.40;7.20;;;;;;;9.27;59.68;98857.01;105290;1254;96531;-75
2023/04/23 06:01:13;;;;;;;18.30;7.00;;;;;;;9.35;59.66;98852.86;105178;1257;97004;-76
2023/04/23 06:03:44;;;;;;;16.90;6.60;;;;;;;9.45;59.75;98849.69;105029;1257;108427;-75
2023/04/23 06:06:13;;;;;;;17.10;7.10;;;;;;;9.55;59.77;98849.33;105121;1259;102199;-74
2023/04/23 06:08:41;;;;;;;17.40;7.40;;;;;;;9.65;59.70;98851.79;105163;1270;106054;-76
2023/04/23 06:11:09;;;;;;;17.40;7.30;;;;;;;9.74;59.79;98849.54;105369;1256;185316;-75
2023/04/23 06:13:39;;;;;;;17.00;6.70;;;;;;;9.82;59.73;98852.69;105269;1253;97427;-74
2023/04/23 06:16:10;;;;;;;17.70;7.20;;;;;;;9.93;59.77;98857.42;105032;1271;109420;-74
2023/04/23 06:18:38;;;;;;;18.30;7.30;;;;;;;10.02;59.73;98855.67;105176;1254;101918;-72
2023/04/23 06:21:07;;;;;;;18.20;7.30;;;;;;;10.09;59.73;98852.98;105158;1271;107070;-73
2023/04/23 06:23:35;;;;;;;18.30;6.70;;;;;;;10.18;59.75;98854.67;105154;1257;97803;-80
2023/04/23 06:26:04;;;;;;;15.60;6.70;;;;;;;10.26;59.69;98854.78;105337;1257;96668;-73
2023/04/23 06:28:32;;;;;;;16.10;6.70;;;;;;;10.36;59.77;98850.18;105323;1253;109367;-72
2023/04/23 06:31:01;;;;;;;14.30;6.40;;;;;;;10.44;59.73;98850.47;105292;1257;102279;-74
2023/04/23 06:33:30;;;;;;;18.50;6.90;;;;;;;10.52;59.75;98850.08;105044;1257;108309;-74
2023/04/23 06:35:57;;;;;;;18.20;6.30;;;;;;;10.62;59.76;98851.39;105424;1257;97937;-74
2023/04/23 06:38:25;;;;;;;15.50;6.40;;;;;;;10.72;59.69;98847.84;105365;1256;97914;-73
2023/04/23 06:40:59;;;;;;;16.90;6.50;;;;;;;10.78;59.67;98841.01;105172;1270;109600;-78
2023/04/23 06:43:29;;;;;;;14.00;6.10;;;;;;;10.87;59.61;98841.16;104875;1261;101935;-79
2023/04/23 06:45:57;;;;;;;14.80;5.80;;;;;;;10.96;59.65;98841.54;105335;1260;107629;-79
2023/04/23 06:48:26;;;;;;;15.70;5.70;;;;;;;11.05;59.67;98840.13;105229;1268;97910;-72
2023/04/23 06:50:54;;;;;;;17.40;5.90;;;;;;;11.16;59.64;98837.33;105648;1256;98418;-74
2023/04/23 06:53:22;;;;;;;14.80;5.30;;;;;;;11.26;59.59;98841.15;105040;1254;109464;-73
2023/04/23 06:55:50;;;;;;;11.30;5.20;;;;;;;11.35;59.54;98838.21;105710;1256;102769;-78
2023/04/23 06:58:18;;;;;;;14.10;5.60;;;;;;;11.47;59.60;98836.81;105153;1254;107673;-78
2023/04/23 07:00:46;;;;;;;14.00;5.60;;;;;;;11.58;59.56;98834.54;105654;1257;97922;-78
2023/04/23 07:03:14;;;;;;;16.90;5.80;;;;;;;11.69;59.51;98836.02;105353;1256;97116;-77
2023/04/23 07:05:42;;;;;;;13.40;5.20;;;;;;;11.83;59.54;98836.84;108664;1253;110221;-81
2023/04/23 07:08:10;;;;;;;14.00;5.60;;;;;;;11.94;59.47;98834.31;105921;1253;102248;-74
2023/04/23 07:10:38;;;;;;;12.40;5.20;;;;;;;12.02;59.28;98833.19;105627;1256;107721;-72
2023/04/23 07:13:06;;;;;;;15.60;5.70;;;;;;;12.12;59.30;98834.50;108556;1252;95590;-73
2023/04/23 07:15:34;;;;;;;15.50;5.40;;;;;;;12.23;59.35;98837.02;107949;1252;96511;-72
2023/04/23 07:18:03;;;;;;;12.40;5.10;;;;;;;12.31;59.26;98831.63;105584;1256;109756;-73
2023/04/23 07:20:32;;;;;;;13.20;5.80;;;;;;;12.39;59.33;98832.64;105828;1252;101828;-74
2023/04/23 07:22:59;;;;;;;13.80;5.00;;;;;;;12.47;59.24;98831.72;108607;1252;107874;-76
2023/04/23 07:25:27;;;;;;;16.00;5.50;;;;;;;12.55;59.19;98834.47;106350;1253;96585;-73
2023/04/23 07:27:56;;;;;;;12.60;5.10;;;;;;;12.62;59.14;98831.20;108480;1252;94280;-75
2023/04/23 07:30:25;;;;;;;13.50;5.40;;;;;;;12.71;59.19;98828.70;105620;1252;110013;-74
2023/04/23 07:32:54;;;;;;;14.00;5.90;;;;;;;12.83;59.12;98829.84;105580;1255;101839;-75
2023/04/23 07:35:22;;;;;;;14.30;5.60;;;;;;;12.92;59.16;98827.75;105479;1256;108313;-76
2023/04/23 07:37:52;;;;;;;13.40;5.70;;;;;;;13.00;59.20;98829.45;105668;1257;96588;-74
2023/04/23 07:40:21;;;;;;;13.80;5.70;;;;;;;13.06;58.84;98827.83;105178;1253;97101;-74
2023/04/23 07:42:50;;;;;;;14.70;5.40;;;;;;;13.10;58.99;98823.39;105391;1256;110428;-72
2023/04/23 07:45:18;;;;;;;14.60;5.60;;;;;;;13.17;59.14;98824.27;106303;1253;100520;-72
2023/04/23 07:47:48;;;;;;;14.90;5.50;;;;;;;13.26;58.96;98829.10;105256;1258;107345;-72
2023/04/23 07:50:16;;;;;;;11.50;5.40;;;;;;;13.32;58.97;98822.52;105231;1269;97951;-72
2023/04/23 07:52:44;;;;;;;14.40;6.10;;;;;;;13.41;59.02;98821.46;105142;1253;97833;-72
2023/04/23 07:55:12;;;;;;;17.50;5.80;;;;;;;13.51;59.06;98815.71;105207;1257;108566;-73
2023/04/23 07:57:40;;;;;;;15.90;5.90;;;;;;;13.60;58.98;98817.67;105162;1257;102224;-73
2023/04/23 08:00:10;;;;;;;17.20;6.20;;;;;;;13.65;58.94;98815.58;105344;1254;108832;-74
2023/04/23 08:02:37;;;;;;;14.70;6.00;;;;;;;13.71;58.84;98808.08;105190;1255;96616;-73
2023/04/23 08:05:06;;;;;;;14.20;5.60;;;;;;;13.79;58.77;98810.63;105339;1253;98427;-72
2023/04/23 08:07:35;;;;;;;13.10;5.80;;;;;;;13.90;58.84;98811.73;105315;1253;109588;-71
2023/04/23 08:10:04;;;;;;;14.10;5.80;;;;;;;13.99;58.71;98814.52;105046;1253;101929;-72
2023/04/23 08:12:34;;;;;;;12.50;5.40;;;;;;;14.06;58.59;98814.03;105074;1257;107303;-73
2023/04/23 08:15:03;;;;;;;11.90;5.50;;;;;;;14.11;58.38;98816.60;105143;1257;97576;-74
2023/04/23 08:17:31;;;;;;;11.80;5.40;;;;;;;14.16;58.32;98815.14;105077;1252;97920;-73
2023/04/23 08:20:00;;;;;;;13.30;5.40;;;;;;;14.15;58.25;98815.50;105295;1253;110021;-73
2023/04/23 08:22:28;;;;;;;9.70;4.90;;;;;;;14.17;58.27;98813.60;105182;1257;100462;-72
2023/04/23 08:24:55;;;;;;;15.00;6.20;;;;;;;14.18;58.35;98814.21;105232;1255;107219;-74
2023/04/23 08:27:23;;;;;;;10.10;4.90;;;;;;;14.25;58.39;98817.00;105211;1256;97647;-76
2023/04/23 08:29:51;;;;;;;15.20;5.40;;;;;;;14.36;58.30;98813.61;105301;1255;98598;-78
2023/04/23 08:32:20;;;;;;;17.30;5.80;;;;;;;14.45;58.13;98813.86;105001;1257;110360;-72
2023/04/23 08:34:48;;;;;;;12.80;5.40;;;;;;;14.53;58.14;98812.99;105193;1275;102217;-73
2023/04/23 08:37:15;;;;;;;12.40;5.40;;;;;;;14.63;57.95;98812.55;105272;1252;107644;-73
2023/04/23 08:39:57;;;;;;;12.90;5.30;;;;;;;14.69;57.87;98806.29;105141;1256;96608;-73
2023/04/23 08:42:47;;;;;;;11.50;5.30;;;;;;;14.71;57.81;98805.75;105125;1257;97105;-74
2023/04/23 08:45:17;;;;;;;12.90;5.10;;;;;;;14.77;57.81;98802.19;105251;1257;109922;-75
2023/04/23 08:47:44;;;;;;;14.10;5.30;;;;;;;14.80;57.66;98800.32;105217;1258;101939;-73
2023/04/23 08:50:18;;;;;;;14.60;5.50;;;;;;;14.81;57.35;98799.54;105271;1255;107677;-73
2023/04/23 08:52:51;;;;;;;12.10;5.40;;;;;;;14.76;57.22;98798.22;105034;1259;96722;-73
2023/04/23 08:55:21;;;;;;;13.20;5.70;;;;;;;14.77;57.51;98798.30;104971;1253;96648;-72
2023/04/23 08:57:50;;;;;;;14.30;5.50;;;;;;;14.83;57.35;98801.50;105058;1253;109937;-73
2023/04/23 09:00:20;;;;;;;11.60;5.40;;;;;;;14.83;57.25;98798.23;105202;1257;101910;-73
2023/04/23 09:02:48;;;;;;;13.30;5.80;;;;;;;14.83;57.16;98796.07;105364;1257;107639;-73
2023/04/23 09:05:17;;;;;;;15.30;5.60;;;;;;;14.89;57.35;98793.61;105455;1252;96582;-73
2023/04/23 09:07:45;;;;;;;11.20;5.50;;;;;;;15.04;57.44;98788.46;105345;1255;96952;-72
2023/04/23 09:10:14;;;;;;;11.40;5.50;;;;;;;15.18;57.34;98790.68;105054;1256;108962;-73
2023/04/23 09:12:46;;;;;;;14.70;5.60;;;;;;;15.23;57.13;98787.30;105154;1260;102280;-74
2023/04/23 09:15:15;;;;;;;12.80;5.70;;;;;;;15.25;56.91;98785.71;105281;1256;107616;-81
2023/04/23 09:17:45;;;;;;;12.90;5.70;;;;;;;15.25;56.87;98783.23;105187;1257;97550;-73
2023/04/23 09:20:14;;;;;;;13.10;5.40;;;;;;;15.34;57.04;98783.54;105377;1257;98246;-73
2023/04/23 09:22:45;;;;;;;15.20;5.70;;;;;;;15.44;56.79;98776.75;105079;1257;109107;-73
2023/04/23 09:25:17;;;;;;;11.50;5.20;;;;;;;15.53;56.74;98779.03;105123;1256;102267;-72
2023/04/23 09:27:46;;;;;;;14.10;6.00;;;;;;;15.57;56.62;98777.45;105275;1259;107366;-72
2023/04/23 09:30:15;;;;;;;12.60;5.70;;;;;;;15.58;56.38;98774.48;105218;1256;97925;-72
2023/04/23 09:32:44;;;;;;;13.30;6.00;;;;;;;15.62;56.60;98775.73;105240;1258;97101;-72
2023/04/23 09:35:21;;;;;;;15.10;6.00;;;;;;;15.73;56.59;98772.84;105579;1257;110399;-73
2023/04/23 09:37:51;;;;;;;14.00;5.60;;;;;;;15.81;56.52;98772.75;107427;1253;102036;-73
2023/04/23 09:40:22;;;;;;;12.00;5.40;;;;;;;15.89;56.36;98770.60;106712;1252;108111;-72
2023/04/23 09:42:53;;;;;;;12.90;5.30;;;;;;;15.95;56.35;98767.67;105233;1254;96667;-73
2023/04/23 09:45:24;;;;;;;10.80;5.20;;;;;;;16.02;56.23;98765.92;105389;1258;97106;-78
2023/04/23 09:47:54;;;;;;;12.20;5.50;;;;;;;16.01;55.89;98764.15;105241;1256;109921;-74
2023/04/23 09:50:34;;;;;;;16.00;5.70;;;;;;;16.01;55.88;98763.71;105567;1252;102199;-72
2023/04/23 09:53:02;;;;;;;10.40;5.10;;;;;;;15.98;55.83;98759.46;106098;1253;108520;-74
2023/04/23 09:55:41;;;;;;;13.70;5.90;;;;;;;16.00;55.62;98760.71;108738;1252;94302;-74
2023/04/23 09:58:12;;;;;;;11.70;5.50;;;;;;;16.08;55.83;98756.70;108778;1252;94288;-74
2023/04/23 10:00:41;;;;;;;12.20;5.10;;;;;;;16.10;55.59;98755.07;106790;1252;109435;-72
2023/04/23 10:03:10;;;;;;;12.50;5.20;;;;;;;16.12;55.38;98754.00;105366;1253;102723;-72
2023/04/23 10:05:40;;;;;;;13.60;5.70;;;;;;;16.13;55.42;98749.92;108705;1252;107622;-73
2023/04/23 10:08:13;;;;;;;13.40;5.40;;;;;;;16.18;55.47;98746.02;105272;1256;96726;-73
2023/04/23 10:10:44;;;;;;;11.90;5.30;;;;;;;16.30;55.55;98739.69;105332;1256;97111;-75
2023/04/23 10:13:16;;;;;;;13.10;5.50;;;;;;;16.38;55.28;98736.87;105177;1258;109595;-74
2023/04/23 10:15:47;;;;;;;14.10;5.60;;;;;;;16.39;55.14;98733.38;105192;1257;102668;-74
2023/04/23 10:18:16;;;;;;;12.30;5.30;;;;;;;16.40;55.25;98729.12;105300;1256;107204;-80
2023/04/23 10:20:44;;;;;;;12.90;5.20;;;;;;;16.49;55.01;98732.58;105198;1257;97551;-74
2023/04/23 10:23:13;;;;;;;11.50;4.80;;;;;;;16.51;54.94;98731.58;105318;1256;97842;-72
2023/04/23 10:25:41;;;;;;;10.20;5.00;;;;;;;16.57;54.93;98729.23;105287;1257;109890;-73
2023/04/23 10:28:11;;;;;;;12.20;5.20;;;;;;;16.57;54.54;98725.50;105222;1256;101885;-73
2023/04/23 10:30:41;;;;;;;11.30;5.20;;;;;;;16.51;54.49;98721.21;105234;1255;107723;-73
2023/04/23 10:33:11;;;;;;;9.40;4.40;;;;;;;16.45;54.58;98719.23;105104;1256;96611;-74
2023/04/23 10:35:56;;;;;;;10.40;5.20;;;;;;;16.45;54.45;98715.38;105133;1257;100726;-73
2023/04/23 10:38:27;;;;;;;11.60;5.20;;;;;;;16.49;54.44;98717.48;105155;1257;109937;-73
2023/04/23 10:40:57;;;;;;;12.00;5.10;;;;;;;16.57;54.31;98717.04;105323;1256;102289;-73
2023/04/23 10:43:25;;;;;;;11.30;4.80;;;;;;;16.59;53.88;98714.38;105161;1253;107734;-73
2023/04/23 10:45:53;;;;;;;10.70;5.30;;;;;;;16.59;53.83;98708.40;105094;1253;97510;-74
2023/04/23 10:48:21;;;;;;;13.00;5.20;;;;;;;16.59;53.88;98711.66;105044;1256;97544;-73
2023/04/23 10:50:57;;;;;;;9.80;4.90;;;;;;;16.59;53.70;98708.36;105145;1253;110013;-73
2023/04/23 10:53:45;;;;;;;11.20;5.10;;;;;;;16.64;53.52;98706.08;104983;1258;101406;-72
2023/04/23 10:56:15;;;;;;;12.40;5.00;;;;;;;16.66;53.47;98704.79;105226;1258;107200;-73
2023/04/23 10:58:47;;;;;;;13.20;5.40;;;;;;;16.71;53.58;98701.04;105150;1257;100222;-74
2023/04/23 11:01:16;;;;;;;12.40;5.40;;;;;;;16.88;53.60;98699.55;105034;1252;96588;-75
2023/04/23 11:03:44;;;;;;;12.80;5.00;;;;;;;16.94;53.22;98696.91;105149;1256;108497;-73
2023/04/23 11:06:19;;;;;;;13.50;5.40;;;;;;;16.98;53.22;98695.32;105263;1255;100314;-74
2023/04/23 11:08:52;;;;;;;12.40;5.50;;;;;;;17.00;52.96;98698.11;105035;1259;107798;-73
2023/04/23 11:11:39;;;;;;;14.50;5.20;;;;;;;17.01;52.84;98694.48;105279;1253;96583;-72
2023/04/23 11:14:14;;;;;;;14.10;5.20;;;;;;;17.00;52.83;98693.45;105093;1257;97097;-73
2023/04/23 11:16:42;;;;;;;11.30;4.80;;;;;;;17.05;52.91;98692.25;105074;1266;109458;-73
2023/04/23 11:19:11;;;;;;;13.60;5.20;;;;;;;17.11;52.86;98687.65;105217;1255;102215;-73
2023/04/23 11:21:59;;;;;;;11.10;5.10;;;;;;;17.19;52.69;98685.52;105255;1256;107322;-73
2023/04/23 11:24:36;;;;;;;12.30;5.10;;;;;;;17.23;52.67;98684.98;105189;1253;96587;-73